VJC943 RCTP-VVNB
Flight info
| Callsign | VJC943 |
|---|---|
| Flight time | 2h 35m |
| Altitude | 36000 |
| Route | CHALI1C CHALI T3 MKG A1 KADLO T1 KAPLI DCT ALLEY V10 SIKOU/K0867S1095 R339 WUY R474 NAKHA NAKHA3E |
| Aircraft | A21N/M-SDE2E3FGHIRWXY/LB1 |
Departure
| Time | 2026-05-04 19:53 |
|---|---|
| Airport | Taiwan Taoyuan International Airport (RCTP) |
Arrival
| Time | 2026-05-04 22:28 |
|---|---|
| Airport | Noi Bai International Airport (VVNB) |
| Time | Latitude | Longitude | Altitude | Speed | Heading |
|---|---|---|---|---|---|
| 2026-05-04 19:30 | 25.08249 | 121.23541 | 106 ft | 0 kts | 139° |
| 2026-05-04 19:44 | 25.08261 | 121.23530 | 104 ft | 4 kts | 139° |
| 2026-05-04 19:44 | 25.08282 | 121.23510 | 106 ft | 4 kts | 139° |
| 2026-05-04 19:44 | 25.08302 | 121.23490 | 104 ft | 4 kts | 139° |
| 2026-05-04 19:44 | 25.08323 | 121.23471 | 106 ft | 4 kts | 139° |
| 2026-05-04 19:45 | 25.08339 | 121.23455 | 105 ft | 3 kts | 140° |
| 2026-05-04 19:45 | 25.08355 | 121.23447 | 104 ft | 4 kts | 211° |
| 2026-05-04 19:45 | 25.08372 | 121.23466 | 104 ft | 4 kts | 229° |
| 2026-05-04 19:45 | 25.08386 | 121.23484 | 105 ft | 0 kts | 229° |
| 2026-05-04 19:47 | 25.08385 | 121.23483 | 105 ft | 1 kts | 229° |
| 2026-05-04 19:48 | 25.08370 | 121.23463 | 104 ft | 5 kts | 229° |
| 2026-05-04 19:48 | 25.08338 | 121.23422 | 106 ft | 9 kts | 229° |
| 2026-05-04 19:48 | 25.08299 | 121.23372 | 106 ft | 9 kts | 229° |
| 2026-05-04 19:48 | 25.08252 | 121.23311 | 106 ft | 12 kts | 229° |
| 2026-05-04 19:49 | 25.08190 | 121.23231 | 106 ft | 15 kts | 230° |
| 2026-05-04 19:49 | 25.08183 | 121.23138 | 105 ft | 15 kts | 317° |
| 2026-05-04 19:49 | 25.08163 | 121.23032 | 106 ft | 18 kts | 228° |
| 2026-05-04 19:49 | 25.08077 | 121.22923 | 105 ft | 20 kts | 229° |
| 2026-05-04 19:50 | 25.07978 | 121.22797 | 106 ft | 23 kts | 229° |
| 2026-05-04 19:50 | 25.07872 | 121.22659 | 106 ft | 25 kts | 230° |
| 2026-05-04 19:50 | 25.07753 | 121.22508 | 105 ft | 27 kts | 228° |
| 2026-05-04 19:50 | 25.07624 | 121.22346 | 105 ft | 29 kts | 229° |
| 2026-05-04 19:51 | 25.07488 | 121.22172 | 106 ft | 27 kts | 229° |
| 2026-05-04 19:51 | 25.07368 | 121.22017 | 106 ft | 28 kts | 229° |
| 2026-05-04 19:51 | 25.07270 | 121.21882 | 104 ft | 17 kts | 262° |
| 2026-05-04 19:51 | 25.07336 | 121.21799 | 106 ft | 13 kts | 320° |
| 2026-05-04 19:52 | 25.07425 | 121.21773 | 106 ft | 17 kts | 38° |
| 2026-05-04 19:52 | 25.07580 | 121.21967 | 106 ft | 72 kts | 51° |
| 2026-05-04 19:52 | 25.08087 | 121.22618 | 108 ft | 149 kts | 49° |
| 2026-05-04 19:52 | 25.08886 | 121.23601 | 495 ft | 176 kts | 52° |
| 2026-05-04 19:53 | 25.09665 | 121.24600 | 1581 ft | 171 kts | 54° |
| 2026-05-04 19:53 | 25.10457 | 121.25648 | 2439 ft | 187 kts | 53° |
| 2026-05-04 19:53 | 25.11578 | 121.26549 | 3051 ft | 215 kts | 18° |
| 2026-05-04 19:53 | 25.13128 | 121.26533 | 3735 ft | 244 kts | 341° |
| 2026-05-04 19:54 | 25.14563 | 121.25454 | 4588 ft | 259 kts | 306° |
| 2026-05-04 19:54 | 25.15258 | 121.23640 | 5734 ft | 259 kts | 273° |
| 2026-05-04 19:54 | 25.15068 | 121.21682 | 6973 ft | 257 kts | 255° |
| 2026-05-04 19:54 | 25.14699 | 121.20426 | 7763 ft | 260 kts | 245° |
| 2026-05-04 19:55 | 25.13779 | 121.18687 | 9002 ft | 264 kts | 237° |
| 2026-05-04 19:55 | 25.12763 | 121.16982 | 10250 ft | 269 kts | 237° |
| 2026-05-04 19:55 | 25.11290 | 121.14526 | 10918 ft | 310 kts | 237° |
| 2026-05-04 19:55 | 25.10050 | 121.12450 | 11289 ft | 339 kts | 237° |
| 2026-05-04 19:56 | 25.09149 | 121.10942 | 11536 ft | 356 kts | 237° |
| 2026-05-04 19:56 | 25.07770 | 121.08636 | 12142 ft | 368 kts | 237° |
| 2026-05-04 19:56 | 25.06350 | 121.06264 | 12970 ft | 373 kts | 237° |
| 2026-05-04 19:56 | 25.04903 | 121.03848 | 13809 ft | 377 kts | 237° |
| 2026-05-04 19:57 | 25.03455 | 121.01431 | 14509 ft | 381 kts | 238° |
| 2026-05-04 19:57 | 25.01984 | 120.98978 | 15214 ft | 385 kts | 238° |
| 2026-05-04 19:57 | 25.00501 | 120.96502 | 15888 ft | 389 kts | 238° |
| 2026-05-04 19:57 | 24.99000 | 120.93996 | 16581 ft | 392 kts | 238° |
| 2026-05-04 19:58 | 24.97490 | 120.91481 | 17261 ft | 395 kts | 238° |
| 2026-05-04 19:58 | 24.95982 | 120.88970 | 17919 ft | 398 kts | 238° |
| 2026-05-04 19:58 | 24.94447 | 120.86415 | 18523 ft | 401 kts | 238° |
| 2026-05-04 19:58 | 24.92901 | 120.83842 | 19095 ft | 404 kts | 238° |
| 2026-05-04 19:59 | 24.91342 | 120.81247 | 19689 ft | 407 kts | 238° |
| 2026-05-04 19:59 | 24.89770 | 120.78632 | 20290 ft | 411 kts | 238° |
| 2026-05-04 19:59 | 24.88180 | 120.75995 | 20928 ft | 414 kts | 238° |
| 2026-05-04 19:59 | 24.86577 | 120.73345 | 21582 ft | 417 kts | 238° |
| 2026-05-04 20:00 | 24.84958 | 120.70668 | 22275 ft | 421 kts | 238° |
| 2026-05-04 20:00 | 24.83332 | 120.67973 | 22947 ft | 424 kts | 238° |
| 2026-05-04 20:00 | 24.81716 | 120.65288 | 23565 ft | 427 kts | 238° |
| 2026-05-04 20:00 | 24.80058 | 120.62541 | 24061 ft | 430 kts | 238° |
| 2026-05-04 20:01 | 24.78397 | 120.59798 | 24553 ft | 432 kts | 238° |
| 2026-05-04 20:01 | 24.76722 | 120.57033 | 25043 ft | 433 kts | 238° |
| 2026-05-04 20:01 | 24.75045 | 120.54262 | 25599 ft | 432 kts | 238° |
| 2026-05-04 20:01 | 24.73248 | 120.51673 | 26281 ft | 431 kts | 232° |
| 2026-05-04 20:02 | 24.71139 | 120.49350 | 26986 ft | 427 kts | 229° |
| 2026-05-04 20:02 | 24.69083 | 120.47012 | 27664 ft | 423 kts | 230° |
| 2026-05-04 20:02 | 24.67044 | 120.44668 | 28196 ft | 424 kts | 230° |
| 2026-05-04 20:02 | 24.65006 | 120.42336 | 28865 ft | 421 kts | 230° |
| 2026-05-04 20:03 | 24.62981 | 120.40017 | 29572 ft | 417 kts | 231° |
| 2026-05-04 20:03 | 24.61127 | 120.37595 | 30283 ft | 413 kts | 232° |
| 2026-05-04 20:03 | 24.59118 | 120.35338 | 30920 ft | 411 kts | 229° |
| 2026-05-04 20:03 | 24.57091 | 120.33143 | 31545 ft | 407 kts | 230° |
| 2026-05-04 20:04 | 24.55111 | 120.30967 | 32115 ft | 405 kts | 230° |
| 2026-05-04 20:04 | 24.53140 | 120.28775 | 32674 ft | 403 kts | 230° |
| 2026-05-04 20:04 | 24.51175 | 120.26575 | 33243 ft | 401 kts | 230° |
| 2026-05-04 20:04 | 24.49224 | 120.24387 | 33783 ft | 399 kts | 230° |
| 2026-05-04 20:05 | 24.47307 | 120.22225 | 34258 ft | 398 kts | 231° |
| 2026-05-04 20:05 | 24.45371 | 120.20033 | 34588 ft | 399 kts | 231° |
| 2026-05-04 20:05 | 24.43431 | 120.17841 | 34924 ft | 400 kts | 231° |
| 2026-05-04 20:05 | 24.41482 | 120.15647 | 35289 ft | 401 kts | 231° |
| 2026-05-04 20:06 | 24.39559 | 120.13480 | 35639 ft | 401 kts | 231° |
| 2026-05-04 20:06 | 24.37609 | 120.11288 | 35950 ft | 403 kts | 231° |
| 2026-05-04 20:06 | 24.35647 | 120.09084 | 36027 ft | 403 kts | 231° |
| 2026-05-04 20:07 | 24.31730 | 120.04684 | 36028 ft | 402 kts | 231° |
| 2026-05-04 20:07 | 24.27817 | 120.00295 | 36017 ft | 402 kts | 231° |
| 2026-05-04 20:08 | 24.23905 | 119.95909 | 35990 ft | 403 kts | 231° |
| 2026-05-04 20:08 | 24.19972 | 119.91506 | 36009 ft | 404 kts | 231° |
| 2026-05-04 20:09 | 24.16059 | 119.87127 | 36005 ft | 404 kts | 231° |
| 2026-05-04 20:09 | 24.12116 | 119.82722 | 36012 ft | 404 kts | 231° |
| 2026-05-04 20:10 | 24.08197 | 119.78342 | 36013 ft | 404 kts | 231° |
| 2026-05-04 20:10 | 24.04259 | 119.73951 | 36010 ft | 404 kts | 231° |
| 2026-05-04 20:11 | 24.00300 | 119.69543 | 36003 ft | 406 kts | 231° |
| 2026-05-04 20:11 | 23.96358 | 119.65146 | 36009 ft | 406 kts | 231° |
| 2026-05-04 20:12 | 23.92396 | 119.60737 | 36010 ft | 406 kts | 231° |
| 2026-05-04 20:12 | 23.88427 | 119.56328 | 36012 ft | 407 kts | 231° |
| 2026-05-04 20:13 | 23.84471 | 119.51952 | 36018 ft | 406 kts | 231° |
| 2026-05-04 20:13 | 23.80498 | 119.47534 | 36016 ft | 406 kts | 231° |
| 2026-05-04 20:14 | 23.76524 | 119.43124 | 35995 ft | 408 kts | 231° |
| 2026-05-04 20:14 | 23.72550 | 119.38722 | 36013 ft | 409 kts | 231° |
| 2026-05-04 20:15 | 23.68546 | 119.34300 | 36017 ft | 409 kts | 231° |
| 2026-05-04 20:15 | 23.64551 | 119.29879 | 36016 ft | 409 kts | 231° |
| 2026-05-04 20:16 | 23.60556 | 119.25464 | 36013 ft | 409 kts | 231° |
| 2026-05-04 20:16 | 23.56574 | 119.21069 | 35989 ft | 410 kts | 231° |
| 2026-05-04 20:17 | 23.52562 | 119.16646 | 36008 ft | 411 kts | 231° |
| 2026-05-04 20:17 | 23.48533 | 119.12215 | 36014 ft | 411 kts | 230° |
| 2026-05-04 20:18 | 23.44494 | 119.07784 | 36012 ft | 411 kts | 231° |
| 2026-05-04 20:18 | 23.40480 | 119.03379 | 36014 ft | 411 kts | 231° |
| 2026-05-04 20:19 | 23.36454 | 118.98959 | 36015 ft | 411 kts | 231° |
| 2026-05-04 20:19 | 23.32423 | 118.94537 | 36003 ft | 412 kts | 231° |
| 2026-05-04 20:20 | 23.28398 | 118.90107 | 36012 ft | 413 kts | 231° |
| 2026-05-04 20:20 | 23.24415 | 118.85602 | 36008 ft | 409 kts | 236° |
| 2026-05-04 20:20 | 23.22925 | 118.83000 | 36010 ft | 403 kts | 247° |
| 2026-05-04 20:21 | 23.21801 | 118.80222 | 36009 ft | 400 kts | 251° |
| 2026-05-04 20:21 | 23.19184 | 118.71574 | 36016 ft | 401 kts | 254° |
| 2026-05-04 20:22 | 23.17467 | 118.65850 | 36017 ft | 401 kts | 254° |
| 2026-05-04 20:22 | 23.15733 | 118.60066 | 36016 ft | 401 kts | 254° |
| 2026-05-04 20:23 | 23.14018 | 118.54329 | 36004 ft | 402 kts | 254° |
| 2026-05-04 20:23 | 23.12282 | 118.48533 | 36015 ft | 403 kts | 254° |
| 2026-05-04 20:24 | 23.10552 | 118.42726 | 36013 ft | 403 kts | 254° |
| 2026-05-04 20:24 | 23.08830 | 118.36962 | 36017 ft | 403 kts | 254° |
| 2026-05-04 20:25 | 23.07091 | 118.31171 | 36019 ft | 403 kts | 254° |
| 2026-05-04 20:25 | 23.05344 | 118.25374 | 36020 ft | 403 kts | 254° |
| 2026-05-04 20:26 | 23.03594 | 118.19580 | 36018 ft | 403 kts | 254° |
| 2026-05-04 20:26 | 23.01843 | 118.13794 | 36018 ft | 403 kts | 254° |
| 2026-05-04 20:27 | 23.00099 | 118.08037 | 36020 ft | 403 kts | 254° |
| 2026-05-04 20:27 | 22.98347 | 118.02255 | 36020 ft | 403 kts | 254° |
| 2026-05-04 20:28 | 22.96595 | 117.96477 | 36008 ft | 404 kts | 254° |
| 2026-05-04 20:28 | 22.94840 | 117.90707 | 36017 ft | 404 kts | 254° |
| 2026-05-04 20:29 | 22.93071 | 117.84904 | 36019 ft | 405 kts | 254° |
| 2026-05-04 20:29 | 22.91306 | 117.79105 | 36020 ft | 405 kts | 254° |
| 2026-05-04 20:30 | 22.89536 | 117.73315 | 36020 ft | 404 kts | 254° |
| 2026-05-04 20:30 | 22.87761 | 117.67505 | 36020 ft | 404 kts | 254° |
| 2026-05-04 20:31 | 22.85991 | 117.61751 | 36022 ft | 405 kts | 253° |
| 2026-05-04 20:31 | 22.84202 | 117.55960 | 36021 ft | 404 kts | 254° |
| 2026-05-04 20:32 | 22.82420 | 117.50170 | 36018 ft | 405 kts | 254° |
| 2026-05-04 20:32 | 22.80633 | 117.44372 | 36018 ft | 404 kts | 254° |
| 2026-05-04 20:33 | 22.78860 | 117.38619 | 36018 ft | 404 kts | 254° |
| 2026-05-04 20:33 | 22.77076 | 117.32835 | 36023 ft | 404 kts | 253° |
| 2026-05-04 20:34 | 22.75286 | 117.27043 | 36018 ft | 404 kts | 253° |
| 2026-05-04 20:34 | 22.73521 | 117.21292 | 36021 ft | 404 kts | 254° |
| 2026-05-04 20:35 | 22.71730 | 117.15496 | 36022 ft | 405 kts | 253° |
| 2026-05-04 20:35 | 22.69928 | 117.09698 | 36021 ft | 405 kts | 253° |
| 2026-05-04 20:36 | 22.68131 | 117.03937 | 36021 ft | 405 kts | 253° |
| 2026-05-04 20:36 | 22.66323 | 116.98150 | 36020 ft | 405 kts | 253° |
| 2026-05-04 20:37 | 22.64521 | 116.92356 | 36023 ft | 405 kts | 253° |
| 2026-05-04 20:37 | 22.62744 | 116.86608 | 36033 ft | 405 kts | 253° |
| 2026-05-04 20:38 | 22.60936 | 116.80817 | 36001 ft | 407 kts | 253° |
| 2026-05-04 20:38 | 22.59119 | 116.75010 | 36017 ft | 407 kts | 253° |
| 2026-05-04 20:39 | 22.57300 | 116.69194 | 36021 ft | 407 kts | 253° |
| 2026-05-04 20:39 | 22.55780 | 116.64363 | 36021 ft | 407 kts | 253° |
| 2026-05-04 20:40 | 22.53659 | 116.57608 | 36015 ft | 407 kts | 253° |
| 2026-05-04 20:40 | 22.51840 | 116.51818 | 36016 ft | 408 kts | 253° |
| 2026-05-04 20:41 | 22.50309 | 116.46978 | 36019 ft | 408 kts | 253° |
| 2026-05-04 20:41 | 22.48472 | 116.41161 | 36017 ft | 408 kts | 253° |
| 2026-05-04 20:42 | 22.46632 | 116.35342 | 36018 ft | 408 kts | 253° |
| 2026-05-04 20:42 | 22.44806 | 116.29558 | 36019 ft | 408 kts | 253° |
| 2026-05-04 20:43 | 22.42963 | 116.23744 | 36021 ft | 408 kts | 253° |
| 2026-05-04 20:43 | 22.41113 | 116.17928 | 36006 ft | 410 kts | 253° |
| 2026-05-04 20:44 | 22.39259 | 116.12094 | 36016 ft | 410 kts | 253° |
| 2026-05-04 20:44 | 22.37406 | 116.06264 | 36014 ft | 410 kts | 253° |
| 2026-05-04 20:45 | 22.35560 | 116.00469 | 36014 ft | 410 kts | 253° |
| 2026-05-04 20:45 | 22.33697 | 115.94635 | 36017 ft | 410 kts | 253° |
| 2026-05-04 20:46 | 22.31842 | 115.88829 | 36020 ft | 411 kts | 253° |
| 2026-05-04 20:46 | 22.29985 | 115.82971 | 36011 ft | 411 kts | 253° |
| 2026-05-04 20:47 | 22.28113 | 115.77140 | 36011 ft | 411 kts | 253° |
| 2026-05-04 20:47 | 22.26236 | 115.71290 | 36015 ft | 411 kts | 253° |
| 2026-05-04 20:48 | 22.24378 | 115.65500 | 36015 ft | 411 kts | 253° |
| 2026-05-04 20:48 | 22.22492 | 115.59642 | 35997 ft | 413 kts | 253° |
| 2026-05-04 20:49 | 22.20607 | 115.53811 | 36008 ft | 414 kts | 253° |
| 2026-05-04 20:49 | 22.18725 | 115.47940 | 36012 ft | 414 kts | 253° |
| 2026-05-04 20:50 | 22.16824 | 115.42066 | 36011 ft | 414 kts | 253° |
| 2026-05-04 20:50 | 22.14934 | 115.36208 | 36012 ft | 414 kts | 253° |
| 2026-05-04 20:51 | 22.13034 | 115.30334 | 36013 ft | 413 kts | 253° |
| 2026-05-04 20:51 | 22.11151 | 115.24519 | 36008 ft | 413 kts | 253° |
| 2026-05-04 20:52 | 22.09253 | 115.18663 | 36010 ft | 413 kts | 253° |
| 2026-05-04 20:52 | 22.07351 | 115.12811 | 36006 ft | 413 kts | 253° |
| 2026-05-04 20:53 | 22.05443 | 115.06955 | 36004 ft | 413 kts | 253° |
| 2026-05-04 20:53 | 22.03547 | 115.01132 | 35987 ft | 413 kts | 253° |
| 2026-05-04 20:54 | 22.01634 | 114.95268 | 36007 ft | 415 kts | 253° |
| 2026-05-04 20:54 | 21.99712 | 114.89390 | 36007 ft | 416 kts | 253° |
| 2026-05-04 20:55 | 21.97792 | 114.83542 | 35997 ft | 416 kts | 253° |
| 2026-05-04 20:55 | 21.95862 | 114.77656 | 35997 ft | 416 kts | 253° |
| 2026-05-04 20:56 | 21.93908 | 114.71792 | 36000 ft | 416 kts | 253° |
| 2026-05-04 20:56 | 21.91965 | 114.65917 | 36000 ft | 416 kts | 253° |
| 2026-05-04 20:57 | 21.90056 | 114.60075 | 35996 ft | 416 kts | 253° |
| 2026-05-04 20:57 | 21.88138 | 114.54177 | 35995 ft | 416 kts | 253° |
| 2026-05-04 20:58 | 21.86218 | 114.48335 | 35994 ft | 416 kts | 253° |
| 2026-05-04 20:58 | 21.84275 | 114.42462 | 35994 ft | 416 kts | 253° |
| 2026-05-04 20:59 | 21.82329 | 114.36573 | 36090 ft | 418 kts | 253° |
| 2026-05-04 20:59 | 21.81354 | 114.33625 | 36204 ft | 419 kts | 253° |
| 2026-05-04 20:59 | 21.80380 | 114.30692 | 36162 ft | 412 kts | 253° |
| 2026-05-04 21:00 | 21.79424 | 114.27809 | 36036 ft | 416 kts | 253° |
| 2026-05-04 21:00 | 21.78447 | 114.24865 | 36038 ft | 417 kts | 253° |
| 2026-05-04 21:00 | 21.76487 | 114.18971 | 36078 ft | 418 kts | 253° |
| 2026-05-04 21:01 | 21.74530 | 114.13110 | 36078 ft | 418 kts | 253° |
| 2026-05-04 21:01 | 21.72570 | 114.07211 | 36077 ft | 418 kts | 253° |
| 2026-05-04 21:02 | 21.70607 | 114.01321 | 36080 ft | 417 kts | 252° |
| 2026-05-04 21:02 | 21.68654 | 113.95473 | 36083 ft | 417 kts | 252° |
| 2026-05-04 21:03 | 21.66685 | 113.89585 | 36076 ft | 417 kts | 252° |
| 2026-05-04 21:03 | 21.64729 | 113.83753 | 36072 ft | 417 kts | 252° |
| 2026-05-04 21:04 | 21.62765 | 113.77888 | 36061 ft | 418 kts | 252° |
| 2026-05-04 21:04 | 21.60782 | 113.71983 | 36073 ft | 420 kts | 252° |
| 2026-05-04 21:05 | 21.58791 | 113.66082 | 36072 ft | 420 kts | 252° |
| 2026-05-04 21:05 | 21.56816 | 113.60206 | 36073 ft | 420 kts | 252° |
| 2026-05-04 21:06 | 21.54825 | 113.54299 | 36075 ft | 420 kts | 252° |
| 2026-05-04 21:06 | 21.52842 | 113.48422 | 36078 ft | 420 kts | 252° |
| 2026-05-04 21:07 | 21.50849 | 113.42524 | 36063 ft | 420 kts | 252° |
| 2026-05-04 21:07 | 21.48844 | 113.36604 | 36067 ft | 421 kts | 252° |
| 2026-05-04 21:08 | 21.46850 | 113.30727 | 36075 ft | 421 kts | 252° |
| 2026-05-04 21:08 | 21.44807 | 113.24832 | 36071 ft | 421 kts | 252° |
| 2026-05-04 21:09 | 21.42795 | 113.18921 | 36075 ft | 421 kts | 252° |
| 2026-05-04 21:09 | 21.40789 | 113.13007 | 36063 ft | 422 kts | 252° |
| 2026-05-04 21:10 | 21.38775 | 113.07076 | 36075 ft | 423 kts | 252° |
| 2026-05-04 21:10 | 21.36748 | 113.01140 | 36072 ft | 423 kts | 252° |
| 2026-05-04 21:11 | 21.34758 | 112.95233 | 36072 ft | 423 kts | 252° |
| 2026-05-04 21:11 | 21.32735 | 112.89297 | 36073 ft | 423 kts | 252° |
| 2026-05-04 21:12 | 21.30701 | 112.83357 | 36076 ft | 423 kts | 252° |
| 2026-05-04 21:12 | 21.28680 | 112.77464 | 36069 ft | 423 kts | 252° |
| 2026-05-04 21:13 | 21.26642 | 112.71529 | 36076 ft | 423 kts | 252° |
| 2026-05-04 21:13 | 21.24605 | 112.65604 | 36073 ft | 423 kts | 252° |
| 2026-05-04 21:14 | 21.22564 | 112.59675 | 36070 ft | 423 kts | 252° |
| 2026-05-04 21:14 | 21.20532 | 112.53786 | 36075 ft | 423 kts | 252° |
| 2026-05-04 21:15 | 21.18489 | 112.47865 | 36076 ft | 424 kts | 252° |
| 2026-05-04 21:15 | 21.16443 | 112.41945 | 36078 ft | 424 kts | 252° |
| 2026-05-04 21:16 | 21.14392 | 112.36015 | 36071 ft | 424 kts | 252° |
| 2026-05-04 21:16 | 21.12333 | 112.30077 | 36077 ft | 424 kts | 252° |
| 2026-05-04 21:17 | 21.10293 | 112.24191 | 36076 ft | 424 kts | 252° |
| 2026-05-04 21:17 | 21.08233 | 112.18259 | 36075 ft | 424 kts | 252° |
| 2026-05-04 21:18 | 21.06172 | 112.12329 | 36074 ft | 424 kts | 252° |
| 2026-05-04 21:18 | 21.04115 | 112.06438 | 36074 ft | 425 kts | 252° |
| 2026-05-04 21:19 | 21.02044 | 112.00502 | 36073 ft | 424 kts | 252° |
| 2026-05-04 21:19 | 20.99975 | 111.94572 | 36079 ft | 425 kts | 252° |
| 2026-05-04 21:20 | 20.97919 | 111.88683 | 36058 ft | 425 kts | 252° |
| 2026-05-04 21:20 | 20.95844 | 111.82737 | 36066 ft | 426 kts | 252° |
| 2026-05-04 21:21 | 20.93764 | 111.76795 | 36070 ft | 426 kts | 252° |
| 2026-05-04 21:21 | 20.91686 | 111.70896 | 36071 ft | 426 kts | 251° |
| 2026-05-04 21:22 | 20.89593 | 111.64947 | 36074 ft | 426 kts | 251° |
| 2026-05-04 21:22 | 20.87502 | 111.59010 | 36071 ft | 426 kts | 252° |
| 2026-05-04 21:23 | 20.85533 | 111.53074 | 36068 ft | 424 kts | 257° |
| 2026-05-04 21:23 | 20.85191 | 111.46839 | 36071 ft | 422 kts | 278° |
| 2026-05-04 21:24 | 20.86607 | 111.40725 | 36073 ft | 423 kts | 284° |
| 2026-05-04 21:24 | 20.88160 | 111.34653 | 36071 ft | 423 kts | 284° |
| 2026-05-04 21:25 | 20.89671 | 111.28604 | 36074 ft | 423 kts | 284° |
| 2026-05-04 21:25 | 20.91188 | 111.22496 | 36074 ft | 423 kts | 284° |
| 2026-05-04 21:26 | 20.92442 | 111.17436 | 36074 ft | 423 kts | 284° |
| 2026-05-04 21:26 | 20.94195 | 111.10358 | 36074 ft | 424 kts | 284° |
| 2026-05-04 21:27 | 20.95453 | 111.05269 | 36071 ft | 424 kts | 284° |
| 2026-05-04 21:27 | 20.96991 | 110.99175 | 36071 ft | 424 kts | 284° |
| 2026-05-04 21:28 | 20.98529 | 110.93105 | 36075 ft | 424 kts | 284° |
| 2026-05-04 21:28 | 21.00070 | 110.87001 | 36076 ft | 424 kts | 284° |
| 2026-05-04 21:29 | 21.01603 | 110.80902 | 36073 ft | 424 kts | 284° |
| 2026-05-04 21:29 | 21.03134 | 110.74823 | 36073 ft | 425 kts | 284° |
| 2026-05-04 21:30 | 21.04671 | 110.68705 | 36076 ft | 425 kts | 284° |
| 2026-05-04 21:30 | 21.06203 | 110.62589 | 36076 ft | 425 kts | 284° |
| 2026-05-04 21:31 | 21.08499 | 110.53404 | 36077 ft | 425 kts | 284° |
| 2026-05-04 21:32 | 21.10019 | 110.47316 | 36076 ft | 425 kts | 284° |
| 2026-05-04 21:32 | 21.11556 | 110.41152 | 36076 ft | 426 kts | 284° |
| 2026-05-04 21:33 | 21.13083 | 110.35053 | 36073 ft | 426 kts | 285° |
| 2026-05-04 21:33 | 21.15486 | 110.29250 | 36080 ft | 428 kts | 297° |
| 2026-05-04 21:34 | 21.18368 | 110.23657 | 36075 ft | 428 kts | 297° |
| 2026-05-04 21:34 | 21.21192 | 110.18086 | 36088 ft | 427 kts | 296° |
| 2026-05-04 21:35 | 21.24014 | 110.12482 | 36086 ft | 426 kts | 296° |
| 2026-05-04 21:35 | 21.26829 | 110.06884 | 36082 ft | 426 kts | 296° |
| 2026-05-04 21:36 | 21.29632 | 110.01307 | 36082 ft | 426 kts | 296° |
| 2026-05-04 21:36 | 21.32448 | 109.95691 | 36080 ft | 426 kts | 296° |
| 2026-05-04 21:37 | 21.35241 | 109.90124 | 36076 ft | 426 kts | 296° |
| 2026-05-04 21:37 | 21.38056 | 109.84504 | 36083 ft | 426 kts | 296° |
| 2026-05-04 21:38 | 21.40851 | 109.78917 | 36079 ft | 426 kts | 296° |
| 2026-05-04 21:38 | 21.43658 | 109.73302 | 36080 ft | 426 kts | 296° |
| 2026-05-04 21:39 | 21.46460 | 109.67685 | 36086 ft | 426 kts | 296° |
| 2026-05-04 21:39 | 21.49247 | 109.62091 | 36083 ft | 426 kts | 296° |
| 2026-05-04 21:40 | 21.52043 | 109.56485 | 36083 ft | 426 kts | 296° |
| 2026-05-04 21:40 | 21.54848 | 109.50857 | 36083 ft | 426 kts | 296° |
| 2026-05-04 21:41 | 21.57635 | 109.45251 | 36087 ft | 426 kts | 297° |
| 2026-05-04 21:41 | 21.61069 | 109.40041 | 36084 ft | 429 kts | 307° |
| 2026-05-04 21:42 | 21.64903 | 109.35176 | 36085 ft | 428 kts | 307° |
| 2026-05-04 21:42 | 21.68753 | 109.30269 | 36087 ft | 428 kts | 307° |
| 2026-05-04 21:43 | 21.72582 | 109.25366 | 36082 ft | 428 kts | 307° |
| 2026-05-04 21:43 | 21.76400 | 109.20472 | 36075 ft | 428 kts | 307° |
| 2026-05-04 21:44 | 21.80233 | 109.15553 | 36091 ft | 428 kts | 307° |
| 2026-05-04 21:44 | 21.84053 | 109.10647 | 36087 ft | 428 kts | 307° |
| 2026-05-04 21:45 | 21.87876 | 109.05754 | 36093 ft | 428 kts | 307° |
| 2026-05-04 21:45 | 21.91722 | 109.00844 | 36089 ft | 428 kts | 307° |
| 2026-05-04 21:46 | 21.95544 | 108.95963 | 36086 ft | 429 kts | 307° |
| 2026-05-04 21:46 | 21.99387 | 108.91035 | 36088 ft | 427 kts | 307° |
| 2026-05-04 21:47 | 22.03211 | 108.86132 | 36086 ft | 427 kts | 307° |
| 2026-05-04 21:47 | 22.07015 | 108.81268 | 36090 ft | 427 kts | 307° |
| 2026-05-04 21:48 | 22.10848 | 108.76348 | 36082 ft | 427 kts | 307° |
| 2026-05-04 21:48 | 22.14611 | 108.71437 | 36085 ft | 425 kts | 303° |
| 2026-05-04 21:48 | 22.16053 | 108.68663 | 36085 ft | 423 kts | 291° |
| 2026-05-04 21:49 | 22.16881 | 108.65630 | 36089 ft | 422 kts | 280° |
| 2026-05-04 21:49 | 22.17108 | 108.59295 | 36101 ft | 423 kts | 271° |
| 2026-05-04 21:50 | 22.17109 | 108.52925 | 36092 ft | 423 kts | 271° |
| 2026-05-04 21:50 | 22.17145 | 108.46617 | 36092 ft | 423 kts | 271° |
| 2026-05-04 21:51 | 22.17185 | 108.40245 | 36095 ft | 424 kts | 271° |
| 2026-05-04 21:51 | 22.17224 | 108.33872 | 36087 ft | 425 kts | 271° |
| 2026-05-04 21:52 | 22.17261 | 108.27535 | 36094 ft | 425 kts | 271° |
| 2026-05-04 21:52 | 22.17296 | 108.21155 | 36084 ft | 425 kts | 271° |
| 2026-05-04 21:53 | 22.17328 | 108.14746 | 36100 ft | 425 kts | 271° |
| 2026-05-04 21:53 | 22.17358 | 108.08397 | 36092 ft | 427 kts | 271° |
| 2026-05-04 21:54 | 22.17392 | 108.01976 | 36086 ft | 428 kts | 271° |
| 2026-05-04 21:54 | 22.17422 | 107.95547 | 36096 ft | 428 kts | 271° |
| 2026-05-04 21:55 | 22.17450 | 107.89168 | 36102 ft | 428 kts | 271° |
| 2026-05-04 21:55 | 22.17476 | 107.82745 | 36106 ft | 428 kts | 271° |
| 2026-05-04 21:56 | 22.17497 | 107.76317 | 36097 ft | 427 kts | 271° |
| 2026-05-04 21:56 | 22.17517 | 107.69886 | 36097 ft | 428 kts | 271° |
| 2026-05-04 21:57 | 22.17535 | 107.63490 | 36094 ft | 428 kts | 271° |
| 2026-05-04 21:57 | 22.17550 | 107.57043 | 36099 ft | 429 kts | 271° |
| 2026-05-04 21:58 | 22.17561 | 107.50640 | 36098 ft | 428 kts | 271° |
| 2026-05-04 21:58 | 22.17575 | 107.44207 | 36097 ft | 428 kts | 271° |
| 2026-05-04 21:59 | 22.17575 | 107.37780 | 36094 ft | 428 kts | 271° |
| 2026-05-04 21:59 | 22.17579 | 107.31380 | 36098 ft | 427 kts | 271° |
| 2026-05-04 22:00 | 22.17591 | 107.24975 | 36089 ft | 427 kts | 271° |
| 2026-05-04 22:00 | 22.17589 | 107.18551 | 36091 ft | 428 kts | 271° |
| 2026-05-04 22:01 | 22.17589 | 107.12154 | 36099 ft | 428 kts | 271° |
| 2026-05-04 22:01 | 22.17585 | 107.05714 | 36095 ft | 429 kts | 271° |
| 2026-05-04 22:02 | 22.17579 | 106.99306 | 36105 ft | 428 kts | 271° |
| 2026-05-04 22:02 | 22.17572 | 106.92881 | 36099 ft | 428 kts | 271° |
| 2026-05-04 22:03 | 22.17552 | 106.86446 | 36107 ft | 428 kts | 271° |
| 2026-05-04 22:03 | 22.17546 | 106.83295 | 35917 ft | 419 kts | 271° |
| 2026-05-04 22:03 | 22.17541 | 106.80125 | 34801 ft | 426 kts | 270° |
| 2026-05-04 22:03 | 22.17530 | 106.76897 | 33712 ft | 432 kts | 271° |
| 2026-05-04 22:04 | 22.17390 | 106.73653 | 32617 ft | 434 kts | 265° |
| 2026-05-04 22:04 | 22.16759 | 106.70454 | 31502 ft | 439 kts | 255° |
| 2026-05-04 22:04 | 22.15611 | 106.67423 | 30489 ft | 443 kts | 246° |
| 2026-05-04 22:04 | 22.13883 | 106.64660 | 29418 ft | 448 kts | 235° |
| 2026-05-04 22:05 | 22.11645 | 106.62276 | 28270 ft | 457 kts | 225° |
| 2026-05-04 22:05 | 22.09141 | 106.60113 | 27102 ft | 460 kts | 223° |
| 2026-05-04 22:05 | 22.06620 | 106.57967 | 25955 ft | 460 kts | 223° |
| 2026-05-04 22:05 | 22.04133 | 106.55826 | 24867 ft | 457 kts | 223° |
| 2026-05-04 22:06 | 22.01664 | 106.53691 | 23966 ft | 451 kts | 223° |
| 2026-05-04 22:06 | 21.99239 | 106.51582 | 23011 ft | 445 kts | 223° |
| 2026-05-04 22:06 | 21.96863 | 106.49499 | 22256 ft | 436 kts | 224° |
| 2026-05-04 22:06 | 21.94620 | 106.47387 | 21768 ft | 431 kts | 225° |
| 2026-05-04 22:07 | 21.92390 | 106.45263 | 21196 ft | 426 kts | 225° |
| 2026-05-04 22:07 | 21.90171 | 106.43141 | 20493 ft | 423 kts | 225° |
| 2026-05-04 22:07 | 21.87992 | 106.41062 | 19731 ft | 415 kts | 225° |
| 2026-05-04 22:07 | 21.85845 | 106.39018 | 19021 ft | 406 kts | 225° |
| 2026-05-04 22:08 | 21.83753 | 106.37024 | 18294 ft | 399 kts | 225° |
| 2026-05-04 22:08 | 21.81703 | 106.35070 | 17453 ft | 396 kts | 225° |
| 2026-05-04 22:08 | 21.79604 | 106.33065 | 16744 ft | 404 kts | 224° |
| 2026-05-04 22:08 | 21.77501 | 106.31062 | 16109 ft | 401 kts | 224° |
| 2026-05-04 22:09 | 21.75417 | 106.29080 | 15489 ft | 397 kts | 224° |
| 2026-05-04 22:09 | 21.73374 | 106.27094 | 14895 ft | 394 kts | 228° |
| 2026-05-04 22:09 | 21.71567 | 106.24894 | 14387 ft | 390 kts | 233° |
| 2026-05-04 22:09 | 21.69853 | 106.22645 | 13934 ft | 388 kts | 233° |
| 2026-05-04 22:10 | 21.68145 | 106.20401 | 13428 ft | 386 kts | 233° |
| 2026-05-04 22:10 | 21.66450 | 106.18171 | 12879 ft | 383 kts | 233° |
| 2026-05-04 22:10 | 21.64786 | 106.15987 | 12347 ft | 381 kts | 232° |
| 2026-05-04 22:10 | 21.63119 | 106.13811 | 11921 ft | 369 kts | 232° |
| 2026-05-04 22:11 | 21.61517 | 106.11726 | 11628 ft | 352 kts | 232° |
| 2026-05-04 22:11 | 21.59989 | 106.09739 | 11404 ft | 337 kts | 232° |
| 2026-05-04 22:11 | 21.58530 | 106.07842 | 11179 ft | 323 kts | 232° |
| 2026-05-04 22:11 | 21.57142 | 106.06041 | 10996 ft | 309 kts | 232° |
| 2026-05-04 22:12 | 21.55794 | 106.04290 | 10837 ft | 297 kts | 232° |
| 2026-05-04 22:12 | 21.54486 | 106.02588 | 10431 ft | 294 kts | 232° |
| 2026-05-04 22:12 | 21.53181 | 106.00886 | 9961 ft | 294 kts | 232° |
| 2026-05-04 22:12 | 21.51876 | 105.99191 | 9518 ft | 293 kts | 232° |
| 2026-05-04 22:13 | 21.50586 | 105.97517 | 9126 ft | 289 kts | 232° |
| 2026-05-04 22:13 | 21.49327 | 105.95889 | 8757 ft | 285 kts | 232° |
| 2026-05-04 22:13 | 21.48060 | 105.94246 | 8404 ft | 285 kts | 232° |
| 2026-05-04 22:13 | 21.46796 | 105.92601 | 8078 ft | 286 kts | 231° |
| 2026-05-04 22:14 | 21.45957 | 105.91509 | 7871 ft | 286 kts | 231° |
| 2026-05-04 22:14 | 21.44692 | 105.89870 | 7556 ft | 283 kts | 231° |
| 2026-05-04 22:14 | 21.43436 | 105.88253 | 7242 ft | 279 kts | 231° |
| 2026-05-04 22:14 | 21.42200 | 105.86648 | 6936 ft | 279 kts | 231° |
| 2026-05-04 22:15 | 21.40959 | 105.85038 | 6626 ft | 279 kts | 231° |
| 2026-05-04 22:15 | 21.39721 | 105.83432 | 6313 ft | 279 kts | 231° |
| 2026-05-04 22:15 | 21.38599 | 105.81746 | 5982 ft | 277 kts | 243° |
| 2026-05-04 22:15 | 21.38121 | 105.79772 | 5671 ft | 274 kts | 263° |
| 2026-05-04 22:16 | 21.37950 | 105.77734 | 5367 ft | 274 kts | 265° |
| 2026-05-04 22:16 | 21.37799 | 105.75731 | 5106 ft | 268 kts | 265° |
| 2026-05-04 22:16 | 21.37646 | 105.73778 | 4962 ft | 256 kts | 264° |
| 2026-05-04 22:16 | 21.37491 | 105.71935 | 4953 ft | 240 kts | 264° |
| 2026-05-04 22:17 | 21.37339 | 105.70211 | 4957 ft | 225 kts | 264° |
| 2026-05-04 22:17 | 21.37194 | 105.68568 | 4966 ft | 220 kts | 264° |
| 2026-05-04 22:17 | 21.37043 | 105.66936 | 4973 ft | 219 kts | 261° |
| 2026-05-04 22:17 | 21.36530 | 105.65440 | 4970 ft | 218 kts | 231° |
| 2026-05-04 22:18 | 21.35317 | 105.64512 | 4971 ft | 217 kts | 198° |
| 2026-05-04 22:18 | 21.33847 | 105.64149 | 5000 ft | 216 kts | 190° |
| 2026-05-04 22:18 | 21.32369 | 105.63838 | 4999 ft | 216 kts | 191° |
| 2026-05-04 22:18 | 21.30902 | 105.63504 | 4997 ft | 215 kts | 192° |
| 2026-05-04 22:19 | 21.29432 | 105.63159 | 4995 ft | 216 kts | 189° |
| 2026-05-04 22:19 | 21.28007 | 105.63230 | 4973 ft | 206 kts | 158° |
| 2026-05-04 22:19 | 21.26896 | 105.64161 | 4980 ft | 206 kts | 123° |
| 2026-05-04 22:19 | 21.26352 | 105.65562 | 4948 ft | 202 kts | 106° |
| 2026-05-04 22:20 | 21.25983 | 105.67015 | 4682 ft | 201 kts | 106° |
| 2026-05-04 22:20 | 21.25601 | 105.68461 | 4392 ft | 202 kts | 106° |
| 2026-05-04 22:20 | 21.25201 | 105.69908 | 4121 ft | 201 kts | 107° |
| 2026-05-04 22:20 | 21.24793 | 105.71337 | 3862 ft | 200 kts | 107° |
| 2026-05-04 22:21 | 21.24422 | 105.72773 | 3605 ft | 199 kts | 96° |
| 2026-05-04 22:21 | 21.24622 | 105.74231 | 3343 ft | 199 kts | 69° |
| 2026-05-04 22:21 | 21.25348 | 105.75463 | 3076 ft | 199 kts | 47° |
| 2026-05-04 22:21 | 21.26482 | 105.76308 | 2797 ft | 200 kts | 24° |
| 2026-05-04 22:22 | 21.27843 | 105.76604 | 2503 ft | 201 kts | 0° |
| 2026-05-04 22:22 | 21.29209 | 105.76300 | 2220 ft | 202 kts | 336° |
| 2026-05-04 22:22 | 21.30448 | 105.75577 | 2001 ft | 202 kts | 332° |
| 2026-05-04 22:22 | 21.31535 | 105.74672 | 1960 ft | 203 kts | 305° |
| 2026-05-04 22:23 | 21.32018 | 105.73290 | 1929 ft | 195 kts | 271° |
| 2026-05-04 22:23 | 21.31781 | 105.71925 | 1794 ft | 181 kts | 249° |
| 2026-05-04 22:23 | 21.31130 | 105.70832 | 1583 ft | 168 kts | 221° |
| 2026-05-04 22:23 | 21.30247 | 105.70146 | 1499 ft | 141 kts | 201° |
| 2026-05-04 22:24 | 21.29379 | 105.69817 | 1467 ft | 129 kts | 196° |
| 2026-05-04 22:24 | 21.28503 | 105.69798 | 1471 ft | 128 kts | 169° |
| 2026-05-04 22:24 | 21.27626 | 105.69986 | 1499 ft | 128 kts | 168° |
| 2026-05-04 22:24 | 21.26749 | 105.70174 | 1501 ft | 128 kts | 168° |
| 2026-05-04 22:25 | 21.25872 | 105.70363 | 1499 ft | 128 kts | 167° |
| 2026-05-04 22:25 | 21.25156 | 105.70887 | 1488 ft | 129 kts | 126° |
| 2026-05-04 22:25 | 21.24753 | 105.71743 | 1481 ft | 128 kts | 113° |
| 2026-05-04 22:25 | 21.24448 | 105.72638 | 1355 ft | 128 kts | 109° |
| 2026-05-04 22:26 | 21.24178 | 105.73535 | 1191 ft | 128 kts | 108° |
| 2026-05-04 22:26 | 21.23914 | 105.74442 | 1017 ft | 127 kts | 108° |
| 2026-05-04 22:26 | 21.23653 | 105.75347 | 843 ft | 127 kts | 107° |
| 2026-05-04 22:26 | 21.23391 | 105.76254 | 673 ft | 126 kts | 106° |
| 2026-05-04 22:27 | 21.23132 | 105.77154 | 495 ft | 126 kts | 106° |
| 2026-05-04 22:27 | 21.22872 | 105.78055 | 314 ft | 126 kts | 106° |
| 2026-05-04 22:27 | 21.22616 | 105.78951 | 147 ft | 126 kts | 106° |
| 2026-05-04 22:27 | 21.22359 | 105.79835 | 52 ft | 120 kts | 107° |
| 2026-05-04 22:28 | 21.22169 | 105.80495 | 53 ft | 65 kts | 108° |
| 2026-05-04 22:28 | 21.22074 | 105.80821 | 54 ft | 40 kts | 107° |
| 2026-05-04 22:28 | 21.21994 | 105.81027 | 54 ft | 25 kts | 175° |
| 2026-05-04 22:28 | 21.21927 | 105.80929 | 56 ft | 20 kts | 259° |
| 2026-05-04 22:29 | 21.21894 | 105.80777 | 55 ft | 22 kts | 257° |
| 2026-05-04 22:29 | 21.21804 | 105.80714 | 55 ft | 15 kts | 197° |
| 2026-05-04 22:29 | 21.21698 | 105.80675 | 54 ft | 17 kts | 197° |
| 2026-05-04 22:29 | 21.21636 | 105.80597 | 51 ft | 17 kts | 285° |
| 2026-05-04 22:30 | 21.21673 | 105.80462 | 54 ft | 20 kts | 287° |
| 2026-05-04 22:30 | 21.21718 | 105.80313 | 54 ft | 15 kts | 288° |
| 2026-05-04 22:30 | 21.21732 | 105.80248 | 54 ft | 5 kts | 242° |
| 2026-05-04 22:30 | 21.21709 | 105.80234 | 53 ft | 2 kts | 196° |
| 2026-05-04 22:31 | 21.21683 | 105.80226 | 54 ft | 5 kts | 197° |
| 2026-05-04 22:31 | 21.21670 | 105.80222 | 54 ft | 0 kts | 197° |